createdAt,value
2022-12-01T00:00:26.191Z,21.70
2022-12-01T00:03:13.869Z,23.15
2022-12-01T00:06:01.570Z,23.92
2022-12-01T00:08:49.134Z,23.87
2022-12-01T00:11:36.740Z,24.16
2022-12-01T00:14:24.352Z,23.51
2022-12-01T00:17:11.954Z,25.27
2022-12-01T00:19:59.529Z,25.90
2022-12-01T00:22:47.111Z,25.78
2022-12-01T00:25:34.686Z,25.64
2022-12-01T00:28:22.283Z,25.66
2022-12-01T00:31:09.872Z,25.23
2022-12-01T00:33:57.461Z,25.58
2022-12-01T00:36:45.079Z,24.89
2022-12-01T00:39:32.693Z,25.06
2022-12-01T00:42:20.290Z,24.45
2022-12-01T00:45:07.855Z,24.12
2022-12-01T00:47:55.442Z,24.32
2022-12-01T00:50:43.005Z,23.54
2022-12-01T00:53:30.601Z,23.77
2022-12-01T00:56:18.170Z,23.59
2022-12-01T00:59:05.757Z,23.11
2022-12-01T01:01:53.359Z,24.13
2022-12-01T01:04:40.964Z,23.91
2022-12-01T01:07:28.595Z,23.58
2022-12-01T01:10:16.186Z,24.36
2022-12-01T01:13:03.743Z,23.72
2022-12-01T01:15:51.382Z,23.14
2022-12-01T01:18:38.963Z,23.22
2022-12-01T01:21:26.559Z,22.87
2022-12-01T01:24:14.121Z,23.06
2022-12-01T01:27:01.701Z,22.73
2022-12-01T01:29:49.464Z,23.90
2022-12-01T01:32:37.253Z,23.12
2022-12-01T01:35:24.843Z,23.94
2022-12-01T01:38:13.486Z,23.21
2022-12-01T01:41:01.090Z,22.28
2022-12-01T01:43:48.653Z,22.66
2022-12-01T01:46:36.471Z,22.30
2022-12-01T01:49:24.060Z,21.85
2022-12-01T01:52:11.665Z,21.79
2022-12-01T01:54:59.250Z,21.63
2022-12-01T01:57:46.835Z,21.21
2022-12-01T02:00:34.440Z,20.69
2022-12-01T02:03:22.035Z,22.43
2022-12-01T02:06:09.609Z,21.66
2022-12-01T02:08:57.202Z,21.28
2022-12-01T02:11:44.786Z,21.64
2022-12-01T02:14:32.364Z,21.36
2022-12-01T02:17:19.934Z,21.25
2022-12-01T02:20:07.506Z,21.73
2022-12-01T02:22:55.086Z,21.10
2022-12-01T02:25:42.658Z,21.16
2022-12-01T02:28:30.231Z,20.30
2022-12-01T02:31:17.959Z,19.41
2022-12-01T02:34:07.575Z,19.80
2022-12-01T02:36:55.148Z,19.48
2022-12-01T02:39:42.745Z,19.02
2022-12-01T02:42:30.357Z,19.33
2022-12-01T02:45:17.965Z,19.39
2022-12-01T02:48:05.572Z,19.20
2022-12-01T02:50:53.169Z,18.39
2022-12-01T02:53:40.755Z,18.20
2022-12-01T02:56:28.337Z,18.57
2022-12-01T02:59:15.935Z,18.07
2022-12-01T03:02:03.490Z,18.01
2022-12-01T03:04:51.094Z,17.97
2022-12-01T03:07:38.693Z,18.04
2022-12-01T03:10:26.322Z,18.32
2022-12-01T03:13:13.911Z,18.10
2022-12-01T03:16:01.535Z,18.37
2022-12-01T03:18:49.148Z,19.12
2022-12-01T03:21:36.749Z,18.50
2022-12-01T03:24:24.336Z,18.55
2022-12-01T03:27:11.945Z,18.98
2022-12-01T03:29:59.508Z,18.67
2022-12-01T03:32:47.098Z,18.71
2022-12-01T03:35:34.786Z,18.84
2022-12-01T03:38:22.355Z,18.83
2022-12-01T03:41:09.950Z,18.50
2022-12-01T03:43:57.525Z,19.33
2022-12-01T03:46:45.119Z,18.79
2022-12-01T03:49:32.703Z,18.75
2022-12-01T03:52:20.300Z,19.19
2022-12-01T03:55:07.886Z,18.61
2022-12-01T03:57:55.485Z,18.86
2022-12-01T04:00:43.054Z,18.44
2022-12-01T04:03:30.634Z,18.84
2022-12-01T04:06:18.221Z,18.48
2022-12-01T04:09:05.814Z,18.20
2022-12-01T04:11:53.401Z,18.25
2022-12-01T04:15:00.979Z,18.18
2022-12-01T04:17:48.546Z,18.10
2022-12-01T04:20:38.119Z,17.78
2022-12-01T04:23:25.693Z,18.34
2022-12-01T04:26:15.907Z,17.79
2022-12-01T04:29:03.686Z,17.75
2022-12-01T04:31:51.396Z,18.25
2022-12-01T04:34:39.050Z,16.78
2022-12-01T04:37:26.648Z,17.61
2022-12-01T04:40:14.253Z,17.48
2022-12-01T04:43:01.829Z,18.24
2022-12-01T04:45:49.429Z,18.24
2022-12-01T04:48:37.021Z,18.71
2022-12-01T04:51:24.647Z,17.92
2022-12-01T04:54:12.233Z,18.44
2022-12-01T04:56:59.821Z,18.35
2022-12-01T04:59:47.538Z,18.41
2022-12-01T05:02:35.479Z,18.47
2022-12-01T05:05:23.067Z,18.23
2022-12-01T05:08:10.721Z,18.95
2022-12-01T05:10:58.391Z,19.26
2022-12-01T05:13:45.993Z,18.52
2022-12-01T05:16:33.654Z,18.55
2022-12-01T05:19:21.296Z,17.90
2022-12-01T05:22:08.874Z,18.93
2022-12-01T05:24:56.466Z,18.94
2022-12-01T05:27:44.030Z,18.93
2022-12-01T05:30:31.590Z,18.92
2022-12-01T05:33:19.178Z,19.01
2022-12-01T05:36:06.819Z,18.64
2022-12-01T05:38:54.393Z,19.47
2022-12-01T05:41:42.013Z,19.01
2022-12-01T05:44:29.591Z,19.56
2022-12-01T05:47:17.197Z,19.46
2022-12-01T05:50:06.031Z,19.85
2022-12-01T05:52:53.806Z,19.37
2022-12-01T05:55:41.378Z,19.30
2022-12-01T05:58:28.966Z,19.30
2022-12-01T06:01:16.580Z,19.36
2022-12-01T06:04:04.193Z,19.38
2022-12-01T06:06:51.794Z,18.73
2022-12-01T06:09:39.374Z,18.50
2022-12-01T06:12:26.922Z,18.45
2022-12-01T06:15:14.507Z,18.19
2022-12-01T06:18:02.105Z,18.37
2022-12-01T06:20:49.684Z,18.85
2022-12-01T06:23:37.299Z,18.47
2022-12-01T06:26:24.921Z,18.92
2022-12-01T06:29:12.501Z,18.55
2022-12-01T06:32:00.157Z,18.83
2022-12-01T06:34:47.815Z,18.32
2022-12-01T06:37:35.408Z,18.71
2022-12-01T06:40:23.078Z,19.20
2022-12-01T06:43:10.657Z,18.95
2022-12-01T06:46:02.034Z,19.04
2022-12-01T06:48:50.018Z,19.13
2022-12-01T06:51:37.598Z,18.95
2022-12-01T06:54:25.175Z,19.05
2022-12-01T06:57:12.805Z,18.44
2022-12-01T07:00:00.720Z,18.58
2022-12-01T07:02:48.583Z,18.61
2022-12-01T07:05:36.201Z,19.36
2022-12-01T07:08:23.778Z,18.07
2022-12-01T07:11:11.380Z,18.16
2022-12-01T07:13:58.963Z,18.71
2022-12-01T07:16:46.622Z,18.66
2022-12-01T07:19:34.244Z,19.13
2022-12-01T07:22:21.858Z,18.49
2022-12-01T07:25:09.455Z,18.57
2022-12-01T07:27:57.034Z,19.62
2022-12-01T07:30:44.662Z,19.00
2022-12-01T07:33:32.249Z,19.00
2022-12-01T07:36:19.835Z,19.11
2022-12-01T07:39:07.460Z,18.86
2022-12-01T07:41:55.046Z,19.22
2022-12-01T07:44:42.638Z,18.23
2022-12-01T07:47:30.226Z,18.31
2022-12-01T07:50:17.847Z,18.08
2022-12-01T07:53:05.407Z,18.12
2022-12-01T07:55:52.998Z,18.95
2022-12-01T07:58:40.562Z,17.36
2022-12-01T08:01:28.231Z,17.92
2022-12-01T08:04:15.901Z,17.95
2022-12-01T08:07:03.502Z,18.77
2022-12-01T08:09:51.702Z,17.78
2022-12-01T08:12:39.474Z,18.28
2022-12-01T08:15:27.144Z,17.78
2022-12-01T08:18:14.802Z,17.83
2022-12-01T08:21:02.365Z,17.38
2022-12-01T08:23:49.956Z,16.79
2022-12-01T08:26:37.520Z,17.30
2022-12-01T08:29:25.113Z,17.43
2022-12-01T08:32:12.691Z,17.00
2022-12-01T08:35:00.262Z,17.56
2022-12-01T08:37:47.839Z,17.67
2022-12-01T08:40:35.423Z,16.52
2022-12-01T08:43:49.634Z,16.78
2022-12-01T08:46:30.559Z,17.23
2022-12-01T08:49:18.154Z,16.33
2022-12-01T08:52:05.732Z,16.78
2022-12-01T08:54:53.312Z,16.07
2022-12-01T08:57:40.898Z,16.17
2022-12-01T09:00:28.525Z,16.64
2022-12-01T09:03:16.167Z,16.72
2022-12-01T09:06:03.767Z,16.06
2022-12-01T09:08:51.336Z,15.89
2022-12-01T09:11:38.900Z,16.36
2022-12-01T09:14:26.511Z,15.82
2022-12-01T09:17:14.093Z,15.77
2022-12-01T09:20:01.677Z,15.44
2022-12-01T09:22:49.314Z,15.86
2022-12-01T09:25:36.886Z,15.16
2022-12-01T09:28:24.479Z,15.57
2022-12-01T09:31:12.152Z,15.27
2022-12-01T09:33:59.784Z,15.60
2022-12-01T09:36:47.351Z,15.91
2022-12-01T09:39:34.926Z,16.08
2022-12-01T09:42:22.479Z,15.70
2022-12-01T09:45:10.050Z,16.10
2022-12-01T09:47:57.648Z,16.97
2022-12-01T09:50:45.253Z,15.57
2022-12-01T09:53:32.878Z,16.28
2022-12-01T09:56:20.565Z,16.44
2022-12-01T09:59:08.189Z,16.82
2022-12-01T10:01:55.867Z,16.77
2022-12-01T10:04:43.512Z,17.59
2022-12-01T10:07:31.114Z,16.61
2022-12-01T10:10:19.906Z,17.21
2022-12-01T10:13:07.609Z,16.67
2022-12-01T10:15:55.272Z,15.83
2022-12-01T10:18:42.879Z,15.59
2022-12-01T10:21:30.476Z,16.52
2022-12-01T10:24:18.039Z,16.27
2022-12-01T10:27:05.638Z,16.71
2022-12-01T10:29:53.679Z,16.80
2022-12-01T10:32:41.594Z,17.17
2022-12-01T10:35:29.207Z,17.34
2022-12-01T10:38:16.817Z,17.06
2022-12-01T10:41:04.422Z,16.76
2022-12-01T10:43:52.063Z,16.18
2022-12-01T10:46:39.675Z,17.76
2022-12-01T10:49:27.254Z,17.42
2022-12-01T10:52:14.846Z,16.51
2022-12-01T10:55:02.451Z,16.84
2022-12-01T10:57:50.008Z,17.54
2022-12-01T11:03:45.199Z,17.29
2022-12-01T11:06:32.807Z,17.79
2022-12-01T11:09:25.976Z,17.82
2022-12-01T11:12:14.027Z,18.62
2022-12-01T11:15:01.606Z,17.09
2022-12-01T11:17:49.377Z,17.13
2022-12-01T11:20:38.420Z,17.68
2022-12-01T11:26:13.975Z,18.03
2022-12-01T11:29:01.595Z,18.06
2022-12-01T11:31:49.264Z,17.52
2022-12-01T11:34:36.903Z,17.08
2022-12-01T11:37:24.471Z,17.86
2022-12-01T11:40:12.082Z,18.53
2022-12-01T11:42:59.662Z,18.24
2022-12-01T11:45:47.328Z,17.49
2022-12-01T11:48:34.952Z,18.11
2022-12-01T11:51:22.547Z,18.26
2022-12-01T11:54:10.150Z,18.55
2022-12-01T11:57:25.810Z,18.25
2022-12-01T12:00:05.267Z,19.08
2022-12-01T12:02:52.854Z,19.02
2022-12-01T12:05:40.416Z,19.52
2022-12-01T12:08:28.033Z,17.97
2022-12-01T12:11:15.697Z,18.10
2022-12-01T12:14:03.279Z,19.11
2022-12-01T12:16:51.035Z,18.35
2022-12-01T12:20:06.247Z,17.84
2022-12-01T12:22:48.601Z,18.42
2022-12-01T12:25:39.910Z,17.74
2022-12-01T12:28:27.469Z,17.84
2022-12-01T12:31:15.130Z,17.54
2022-12-01T12:34:02.754Z,18.09
2022-12-01T12:36:50.341Z,18.55
2022-12-01T12:39:37.929Z,18.34
2022-12-01T12:42:25.522Z,18.00
2022-12-01T12:45:13.079Z,17.80
2022-12-01T12:48:00.666Z,18.48
2022-12-01T12:50:48.253Z,18.03
2022-12-01T12:53:35.899Z,18.22
2022-12-01T12:56:23.487Z,17.84
2022-12-01T12:59:11.159Z,18.81
2022-12-01T13:01:58.791Z,18.60
2022-12-01T13:04:46.392Z,18.46
2022-12-01T13:07:34.168Z,18.38
2022-12-01T13:10:21.827Z,18.42
2022-12-01T13:13:09.501Z,18.36
2022-12-01T13:15:57.136Z,17.99
2022-12-01T13:18:44.783Z,18.88
2022-12-01T13:21:32.402Z,18.14
2022-12-01T13:24:23.274Z,18.03
2022-12-01T13:27:11.219Z,18.47
2022-12-01T13:29:58.810Z,18.56
2022-12-01T13:32:46.406Z,18.05
2022-12-01T13:35:33.980Z,17.48
2022-12-01T13:38:21.571Z,18.09
2022-12-01T13:41:09.128Z,18.53
2022-12-01T13:43:56.741Z,18.67
2022-12-01T13:46:44.363Z,18.91
2022-12-01T13:49:33.464Z,19.03
2022-12-01T13:52:21.207Z,19.03
2022-12-01T13:55:08.808Z,19.11
2022-12-01T13:57:56.409Z,18.86
2022-12-01T14:00:44.006Z,19.55
2022-12-01T14:03:31.738Z,19.40
2022-12-01T14:06:19.368Z,18.68
2022-12-01T14:09:06.977Z,20.28
2022-12-01T14:11:54.545Z,19.19
2022-12-01T14:14:42.166Z,19.63
2022-12-01T14:17:29.781Z,19.42
2022-12-01T14:20:17.385Z,19.98
2022-12-01T14:23:05.104Z,18.99
2022-12-01T14:25:52.714Z,19.20
2022-12-01T14:28:40.308Z,19.26
2022-12-01T14:31:28.439Z,18.75
2022-12-01T14:34:19.167Z,18.36
2022-12-01T14:37:07.088Z,18.51
2022-12-01T14:39:54.687Z,18.84
2022-12-01T14:42:42.294Z,18.74
2022-12-01T14:45:29.889Z,18.69
2022-12-01T14:48:17.491Z,19.38
2022-12-01T14:51:05.059Z,19.53
2022-12-01T14:53:52.664Z,19.33
2022-12-01T14:56:40.211Z,19.14
2022-12-01T14:59:27.792Z,19.01
2022-12-01T15:02:15.437Z,19.19
2022-12-01T15:05:03.049Z,19.08
2022-12-01T15:07:50.680Z,19.55
2022-12-01T15:10:38.278Z,19.14
2022-12-01T15:13:25.860Z,19.17
2022-12-01T15:16:13.475Z,19.70
2022-12-01T15:19:01.121Z,19.59
2022-12-01T15:21:48.719Z,19.63
2022-12-01T15:24:36.328Z,20.36
2022-12-01T15:27:23.915Z,20.46
2022-12-01T15:30:11.494Z,20.28
2022-12-01T15:32:59.042Z,20.43
2022-12-01T15:35:46.619Z,20.28
2022-12-01T15:38:34.203Z,20.72
2022-12-01T15:41:30.035Z,20.60
2022-12-01T15:44:18.058Z,20.46
2022-12-01T15:47:05.631Z,21.06
2022-12-01T15:49:53.207Z,20.57
2022-12-01T15:52:40.789Z,20.41
2022-12-01T15:55:28.408Z,20.58
2022-12-01T15:58:16.007Z,20.35
2022-12-01T16:01:03.671Z,20.70
2022-12-01T16:03:51.333Z,20.53
2022-12-01T16:06:38.960Z,21.43
2022-12-01T16:09:26.649Z,20.64
2022-12-01T16:12:14.251Z,21.62
2022-12-01T16:15:01.837Z,20.64
2022-12-01T16:17:49.417Z,20.97
2022-12-01T16:20:37.037Z,22.05
2022-12-01T16:23:24.609Z,22.24
2022-12-01T16:26:12.191Z,21.88
2022-12-01T16:28:59.775Z,22.29
2022-12-01T16:32:12.597Z,21.86
2022-12-01T16:34:54.958Z,22.14
2022-12-01T16:37:42.566Z,23.19
2022-12-01T16:40:30.142Z,22.80
2022-12-01T16:43:17.754Z,23.22
2022-12-01T16:46:05.360Z,23.65
2022-12-01T16:48:32.768Z,23.25
2022-12-01T16:51:00.136Z,23.60
2022-12-01T16:53:27.522Z,23.08
2022-12-01T16:55:54.905Z,24.12
2022-12-01T16:58:22.295Z,24.97
2022-12-01T17:00:49.695Z,24.08
2022-12-01T17:03:17.073Z,24.30
2022-12-01T17:05:44.582Z,24.44
2022-12-01T17:08:12.083Z,24.08
2022-12-01T17:10:39.513Z,24.50
2022-12-01T17:13:07.020Z,25.23
2022-12-01T17:15:34.497Z,25.50
2022-12-01T17:18:01.972Z,25.03
2022-12-01T17:20:29.374Z,26.07
2022-12-01T17:22:56.748Z,25.30
2022-12-01T17:25:24.151Z,24.79
2022-12-01T17:27:51.534Z,25.45
2022-12-01T17:30:18.931Z,26.52
2022-12-01T17:32:46.298Z,25.74
2022-12-01T17:35:13.970Z,25.76
2022-12-01T17:37:41.362Z,25.30
2022-12-01T17:40:08.779Z,25.58
2022-12-01T17:42:36.167Z,25.43
2022-12-01T17:45:03.827Z,25.98
2022-12-01T17:47:31.227Z,25.95
2022-12-01T17:49:58.606Z,25.38
2022-12-01T17:52:28.585Z,25.87
2022-12-01T17:54:56.172Z,26.62
2022-12-01T17:57:23.582Z,25.90
2022-12-01T17:59:50.985Z,25.55
2022-12-01T18:02:18.460Z,25.90
2022-12-01T18:04:48.117Z,25.84
2022-12-01T18:07:15.594Z,25.78
2022-12-01T18:09:42.974Z,25.71
2022-12-01T18:12:10.415Z,26.48
2022-12-01T18:14:37.860Z,26.45
2022-12-01T18:17:05.239Z,27.02
2022-12-01T18:19:32.772Z,25.74
2022-12-01T18:22:00.333Z,25.41
2022-12-01T18:24:27.762Z,25.71
2022-12-01T18:26:55.177Z,25.59
2022-12-01T18:29:22.655Z,25.78
2022-12-01T18:31:50.243Z,26.02
2022-12-01T18:34:17.786Z,26.84
2022-12-01T18:36:45.220Z,26.58
2022-12-01T18:39:12.623Z,26.26
2022-12-01T18:41:40.041Z,26.18
2022-12-01T18:44:07.460Z,26.60
2022-12-01T18:46:35.019Z,26.58
2022-12-01T18:49:02.517Z,27.18
2022-12-01T18:51:29.907Z,27.04
2022-12-01T18:53:57.459Z,26.35
2022-12-01T18:56:24.866Z,26.36
2022-12-01T18:58:52.263Z,26.40
2022-12-01T19:01:19.768Z,25.89
2022-12-01T19:03:47.217Z,25.59
2022-12-01T19:06:14.641Z,25.46
2022-12-01T19:08:42.022Z,26.77
2022-12-01T19:11:09.477Z,26.63
2022-12-01T19:13:36.867Z,26.09
2022-12-01T19:16:04.285Z,25.44
2022-12-01T19:18:31.699Z,25.36
2022-12-01T19:20:59.085Z,24.74
2022-12-01T19:23:26.467Z,25.69
2022-12-01T19:25:53.840Z,26.50
2022-12-01T19:28:21.230Z,25.66
2022-12-01T19:30:48.660Z,26.42
2022-12-01T19:33:16.069Z,25.71
2022-12-01T19:35:43.509Z,26.22
2022-12-01T19:38:10.939Z,25.85
2022-12-01T19:40:38.358Z,25.55
2022-12-01T19:43:05.747Z,25.71
2022-12-01T19:45:34.380Z,26.08
2022-12-01T19:48:02.091Z,25.60
2022-12-01T19:50:29.479Z,26.52
2022-12-01T19:52:56.870Z,26.92
2022-12-01T19:55:24.286Z,26.27
2022-12-01T19:57:51.703Z,26.85
2022-12-01T20:00:19.178Z,26.98
2022-12-01T20:02:46.628Z,26.84
2022-12-01T20:05:14.052Z,26.26
2022-12-01T20:07:41.484Z,26.20
2022-12-01T20:10:08.961Z,26.77
2022-12-01T20:12:36.430Z,26.39
2022-12-01T20:15:03.845Z,26.97
2022-12-01T20:17:31.260Z,26.89
2022-12-01T20:19:58.652Z,26.67
2022-12-01T20:22:26.024Z,27.25
2022-12-01T20:24:53.520Z,26.56
2022-12-01T20:27:20.990Z,27.16
2022-12-01T20:30:07.123Z,27.20
2022-12-01T20:32:52.971Z,27.18
2022-12-01T20:35:40.582Z,27.14
2022-12-01T20:38:28.182Z,26.93
2022-12-01T20:41:15.746Z,26.72
2022-12-01T20:44:07.505Z,27.10
2022-12-01T20:46:55.500Z,27.14
2022-12-01T20:49:43.095Z,27.55
2022-12-01T20:52:30.656Z,26.95
2022-12-01T20:55:18.264Z,26.35
2022-12-01T20:58:05.823Z,26.30
2022-12-01T21:00:53.485Z,25.61
2022-12-01T21:03:41.067Z,25.62
2022-12-01T21:06:28.683Z,25.59
2022-12-01T21:09:16.267Z,27.29
2022-12-01T21:12:03.871Z,26.16
2022-12-01T21:14:51.730Z,25.58
2022-12-01T21:17:39.598Z,26.56
2022-12-01T21:20:27.203Z,26.10
2022-12-01T21:23:14.796Z,27.29
2022-12-01T21:26:02.382Z,26.77
2022-12-01T21:28:49.994Z,27.57
2022-12-01T21:31:37.593Z,27.56
2022-12-01T21:34:25.210Z,27.63
2022-12-01T21:37:12.787Z,27.56
2022-12-01T21:40:00.388Z,27.85
2022-12-01T21:42:47.997Z,27.12
2022-12-01T21:45:35.633Z,26.74
2022-12-01T21:48:23.292Z,27.21
2022-12-01T21:51:10.938Z,27.60
2022-12-01T21:53:58.549Z,26.88
2022-12-01T21:56:46.153Z,27.60
2022-12-01T21:59:33.703Z,28.62
2022-12-01T22:02:21.383Z,28.33
2022-12-01T22:05:09.009Z,27.32
2022-12-01T22:07:56.637Z,27.59
2022-12-01T22:10:44.255Z,28.07
2022-12-01T22:13:31.844Z,28.28
2022-12-01T22:16:19.526Z,28.10
2022-12-01T22:19:07.214Z,28.36
2022-12-01T22:21:54.797Z,28.70
2022-12-01T22:24:42.383Z,28.61
2022-12-01T22:27:29.961Z,27.90
2022-12-01T22:30:17.538Z,28.98
2022-12-01T22:33:05.122Z,28.05
2022-12-01T22:35:52.705Z,27.93
2022-12-01T22:38:40.313Z,28.91
2022-12-01T22:41:27.937Z,28.50
2022-12-01T22:44:15.574Z,28.36
2022-12-01T22:47:03.155Z,27.91
2022-12-01T22:49:50.748Z,28.45
2022-12-01T22:52:38.337Z,28.27
2022-12-01T22:55:25.949Z,29.38
2022-12-01T22:58:13.554Z,28.29
2022-12-01T23:01:01.188Z,28.19
2022-12-01T23:03:48.760Z,28.63
2022-12-01T23:06:36.353Z,28.49
2022-12-01T23:09:23.948Z,29.70
2022-12-01T23:12:11.581Z,28.80
2022-12-01T23:15:01.179Z,28.00
2022-12-01T23:17:48.795Z,29.61
2022-12-01T23:20:36.375Z,29.61
2022-12-01T23:23:23.978Z,29.50
2022-12-01T23:26:11.592Z,28.67
2022-12-01T23:28:59.239Z,29.57
2022-12-01T23:31:46.999Z,29.05
2022-12-01T23:34:34.695Z,29.02
2022-12-01T23:37:22.279Z,28.75
2022-12-01T23:40:09.888Z,29.55
2022-12-01T23:42:57.446Z,29.82
2022-12-01T23:45:45.031Z,29.52
2022-12-01T23:48:32.631Z,29.14
2022-12-01T23:51:20.274Z,29.75
2022-12-01T23:54:07.883Z,29.76
2022-12-01T23:56:55.501Z,29.60
2022-12-01T23:59:43.072Z,30.27
